Time;durP1;ratioP1;P1;durP2;ratioP2;P2;SDS_P1;SDS_P2;PMS_P1;PMS_P2;Temp;Humidity;BMP_temperature;BMP_pressure;BME280_temperature;BME280_humidity;BME280_pressure;Samples;Min_cycle;Max_cycle;Signal;HPM_P1;HPM_P2
2023/10/21 00:00:29;;;;;;;;;;;;;;;17.31;63.47;97371.13;6127024;23;7224;-72
2023/10/21 00:02:55;;;;;;;;;;;;;;;17.34;63.38;97381.41;6125268;23;7034;-72
2023/10/21 00:05:20;;;;;;;;;;;;;;;17.37;63.49;97385.63;6154203;23;6805;-72
2023/10/21 00:07:46;;;;;;;;;;;;;;;17.38;63.16;97389.94;6177828;23;7206;-73
2023/10/21 00:10:12;;;;;;;;;;;;;;;17.40;63.46;97390.75;6128682;23;6930;-72
2023/10/21 00:12:37;;;;;;;;;;;;;;;17.42;63.42;97394.97;6153745;23;6762;-72
2023/10/21 00:15:07;;;;;;;;;;;;;;;17.43;63.30;97399.28;6154103;23;6762;-72
2023/10/21 00:17:33;;;;;;;;;;;;;;;17.42;63.43;97405.31;6130237;23;6957;-72
2023/10/21 00:20:02;;;;;;;;;;;;;;;17.43;63.05;97409.66;6129494;23;6965;-72
2023/10/21 00:22:28;;;;;;;;;;;;;;;17.44;63.19;97407.88;6130082;23;7234;-72
2023/10/21 00:24:53;;;;;;;;;;;;;;;17.45;63.30;97417.34;6155148;23;6830;-72
2023/10/21 00:27:19;;;;;;;;;;;;;;;17.46;63.44;97408.69;6129435;23;6945;-71
2023/10/21 00:29:44;;;;;;;;;;;;;;;17.46;63.16;97417.31;6154529;23;6759;-72
2023/10/21 00:32:10;;;;;;;;;;;;;;;17.48;63.35;97414.69;6154415;23;7023;-72
2023/10/21 00:34:39;;;;;;;;;;;;;;;17.48;63.23;97423.28;6129844;23;7200;-72
2023/10/21 00:37:07;;;;;;;;;;;;;;;17.48;63.10;97425.88;6131109;23;6947;-72
2023/10/21 00:39:34;;;;;;;;;;;;;;;17.49;63.08;97427.56;6152540;23;6861;-72
2023/10/21 00:42:04;;;;;;;;;;;;;;;17.49;63.40;97437.09;6155516;23;6770;-72
2023/10/21 00:44:31;;;;;;;;;;;;;;;17.50;62.81;97443.97;6154672;23;6790;-72
2023/10/21 00:47:00;;;;;;;;;;;;;;;17.50;63.05;97446.56;6153054;23;6798;-72
2023/10/21 00:49:30;;;;;;;;;;;;;;;17.51;62.99;97456.03;6151989;23;6786;-71
2023/10/21 00:51:57;;;;;;;;;;;;;;;17.52;63.43;97460.31;6153820;23;6965;-72
2023/10/21 00:54:26;;;;;;;;;;;;;;;17.53;63.12;97464.59;6152099;23;6787;-71
2023/10/21 00:56:54;;;;;;;;;;;;;;;17.51;63.22;97471.56;6153777;23;6774;-72
2023/10/21 00:59:20;;;;;;;;;;;;;;;17.50;63.39;97475.03;6154446;23;6782;-72
2023/10/21 01:01:46;;;;;;;;;;;;;;;17.48;63.13;97480.25;6152174;23;6775;-72
2023/10/21 01:04:13;;;;;;;;;;;;;;;17.48;63.50;97482.00;6154891;23;6770;-72
2023/10/21 01:06:40;;;;;;;;;;;;;;;17.46;63.49;97479.44;6155459;23;6838;-72
2023/10/21 01:09:07;;;;;;;;;;;;;;;17.46;63.04;97488.94;6126770;23;6957;-72
2023/10/21 01:11:32;;;;;;;;;;;;;;;17.45;63.35;97493.28;6153954;23;6838;-72
2023/10/21 01:13:58;;;;;;;;;;;;;;;17.45;63.64;97489.84;6152755;23;6747;-73
2023/10/21 01:16:24;;;;;;;;;;;;;;;17.45;63.51;97492.44;6154869;23;6770;-71
2023/10/21 01:18:50;;;;;;;;;;;;;;;17.45;63.58;97492.44;6152894;23;6946;-72
2023/10/21 01:21:15;;;;;;;;;;;;;;;17.46;63.44;97501.88;6152823;23;6771;-73
2023/10/21 01:23:41;;;;;;;;;;;;;;;17.47;63.48;97507.03;6153909;23;6755;-73
2023/10/21 01:26:07;;;;;;;;;;;;;;;17.48;63.48;97511.31;6153400;23;6767;-73
2023/10/21 01:28:34;;;;;;;;;;;;;;;17.47;63.66;97508.75;6150539;23;6826;-73
2023/10/21 01:31:01;;;;;;;;;;;;;;;17.46;63.85;97514.84;6129205;23;7216;-73
2023/10/21 01:33:27;;;;;;;;;;;;;;;17.45;63.27;97518.31;6153881;23;6775;-73
2023/10/21 01:35:53;;;;;;;;;;;;;;;17.42;63.42;97516.66;6153932;23;6834;-73
2023/10/21 01:38:19;;;;;;;;;;;;;;;17.40;63.26;97515.84;6152800;23;6968;-73
2023/10/21 01:40:46;;;;;;;;;;;;;;;17.40;63.77;97520.19;6152770;23;6921;-73
2023/10/21 01:43:11;;;;;;;;;;;;;;;17.38;64.01;97525.41;6151984;23;6774;-73
2023/10/21 01:45:38;;;;;;;;;;;;;;;17.35;63.67;97528.91;6153307;23;6916;-73
2023/10/21 01:48:05;;;;;;;;;;;;;;;17.34;63.48;97526.38;6130453;23;6957;-73
2023/10/21 01:50:31;;;;;;;;;;;;;;;17.34;64.25;97534.13;6154227;23;6804;-73
2023/10/21 01:52:58;;;;;;;;;;;;;;;17.33;63.79;97541.03;6156798;23;7173;-73
2023/10/21 01:55:24;;;;;;;;;;;;;;;17.34;64.26;97537.56;6154890;23;6778;-73
2023/10/21 01:57:50;;;;;;;;;;;;;;;17.34;64.46;97542.75;6128661;23;7004;-73
2023/10/21 02:00:20;;;;;;;;;;;;;;;17.35;64.68;97544.44;6151524;23;6775;-73
2023/10/21 02:02:56;;;;;;;;;;;;;;;17.36;64.18;97545.31;6151303;23;6782;-73
2023/10/21 02:05:23;;;;;;;;;;;;;;;17.35;64.48;97552.19;6128955;23;7264;-73
2023/10/21 02:07:51;;;;;;;;;;;;;;;17.37;64.63;97557.34;6153413;23;6771;-73
2023/10/21 02:10:17;;;;;;;;;;;;;;;17.39;65.00;97554.72;6150627;23;7408;-73
2023/10/21 02:12:43;;;;;;;;;;;;;;;17.42;65.06;97554.66;6152021;23;6766;-73
2023/10/21 02:15:14;;;;;;;;;;;;;;;17.44;64.80;97564.09;6171667;23;6970;-73
2023/10/21 02:17:42;;;;;;;;;;;;;;;17.46;64.93;97559.72;6148489;23;6919;-73
2023/10/21 02:20:10;;;;;;;;;;;;;;;17.47;64.60;97566.59;6150126;23;6766;-73
2023/10/21 02:22:36;;;;;;;;;;;;;;;17.49;64.97;97579.50;6124354;23;7110;-73
2023/10/21 02:25:01;;;;;;;;;;;;;;;17.49;64.60;97582.09;6146790;23;7022;-73
2023/10/21 02:27:28;;;;;;;;;;;;;;;17.52;65.14;97581.13;6146199;23;7189;-73
2023/10/21 02:29:53;;;;;;;;;;;;;;;17.52;64.86;97587.19;6146352;23;6922;-73
2023/10/21 02:32:19;;;;;;;;;;;;;;;17.54;64.77;97594.91;6146491;23;7007;-73
2023/10/21 02:34:44;;;;;;;;;;;;;;;17.55;65.21;97599.22;6122363;23;6995;-73
2023/10/21 02:37:11;;;;;;;;;;;;;;;17.56;65.06;97593.97;6145500;23;7081;-72
2023/10/21 02:39:37;;;;;;;;;;;;;;;17.55;64.78;97594.84;6120696;23;7826;-72
2023/10/21 02:42:03;;;;;;;;;;;;;;;17.57;65.41;97600.84;6144638;23;8158;-72
2023/10/21 02:44:29;;;;;;;;;;;;;;;17.58;65.62;97602.56;6143771;23;6978;-73
2023/10/21 02:46:54;;;;;;;;;;;;;;;17.59;65.38;97611.16;6148049;23;7121;-72
2023/10/21 02:49:20;;;;;;;;;;;;;;;17.60;65.46;97618.91;6144438;23;6783;-72
2023/10/21 02:51:47;;;;;;;;;;;;;;;17.61;65.25;97619.75;6144564;23;7200;-72
2023/10/21 02:54:13;;;;;;;;;;;;;;;17.61;65.53;97627.50;6145847;23;7320;-72
2023/10/21 02:56:41;;;;;;;;;;;;;;;17.62;65.13;97630.06;6145923;23;6771;-72
2023/10/21 02:59:07;;;;;;;;;;;;;;;17.65;65.55;97633.47;6120955;23;7238;-72
2023/10/21 03:01:33;;;;;;;;;;;;;;;17.65;65.42;97639.53;6144852;23;6787;-72
2023/10/21 03:03:58;;;;;;;;;;;;;;;17.68;65.69;97641.19;6169852;23;6948;-72
2023/10/21 03:06:24;;;;;;;;;;;;;;;17.69;65.38;97642.88;6146668;23;7053;-72
2023/10/21 03:08:50;;;;;;;;;;;;;;;17.70;65.90;97642.81;6145549;23;6827;-72
2023/10/21 03:11:15;;;;;;;;;;;;;;;17.73;65.74;97654.84;6146057;23;6767;-73
2023/10/21 03:13:41;;;;;;;;;;;;;;;17.73;65.20;97649.69;6142713;23;7116;-72
2023/10/21 03:16:14;;;;;;;;;;;;;;;17.77;65.42;97659.09;6146491;23;6834;-73
2023/10/21 03:18:41;;;;;;;;;;;;;;;17.79;65.09;97657.31;6143364;23;7044;-72
2023/10/21 03:21:08;;;;;;;;;;;;;;;17.79;64.81;97659.91;6146352;23;6966;-72
2023/10/21 03:23:35;;;;;;;;;;;;;;;17.81;65.08;97670.19;6144406;23;6839;-72
2023/10/21 03:26:03;;;;;;;;;;;;;;;17.81;64.98;97673.66;6170380;23;6775;-72
2023/10/21 03:28:30;;;;;;;;;;;;;;;17.83;64.74;97673.63;6145771;23;7809;-72
2023/10/21 03:30:57;;;;;;;;;;;;;;;17.83;65.25;97678.81;6146298;23;7004;-72
2023/10/21 03:33:28;;;;;;;;;;;;;;;17.83;65.06;97679.63;6144926;23;6778;-72
2023/10/21 03:35:56;;;;;;;;;;;;;;;17.84;65.06;97676.16;6144567;23;6771;-72
2023/10/21 03:38:23;;;;;;;;;;;;;;;17.84;64.82;97689.09;6144545;23;7294;-72
2023/10/21 03:41:08;;;;;;;;;;;;;;;17.83;64.56;97690.00;6146128;23;7881;-72
2023/10/21 03:43:35;;;;;;;;;;;;;;;17.83;65.25;97695.19;6151338;23;6779;-71
2023/10/21 03:46:06;;;;;;;;;;;;;;;17.84;65.12;97696.03;6153288;23;6851;-71
2023/10/21 03:48:32;;;;;;;;;;;;;;;17.82;64.97;97701.25;6152488;23;7026;-72
2023/10/21 03:51:11;;;;;;;;;;;;;;;17.80;64.50;97700.44;6129353;23;8577;-72
2023/10/21 03:53:40;;;;;;;;;;;;;;;17.79;64.96;97705.66;6153810;23;6786;-71
2023/10/21 03:56:06;;;;;;;;;;;;;;;17.79;64.76;97703.94;6152932;23;6786;-72
2023/10/21 03:58:32;;;;;;;;;;;;;;;17.81;64.99;97709.06;6125658;23;7314;-72
2023/10/21 04:00:58;;;;;;;;;;;;;;;17.85;65.02;97724.47;6149639;23;6867;-73
2023/10/21 04:03:25;;;;;;;;;;;;;;;17.87;64.69;97721.88;6142861;23;6912;-71
2023/10/21 04:05:53;;;;;;;;;;;;;;;17.88;64.90;97724.44;6125036;23;6968;-72
2023/10/21 04:08:19;;;;;;;;;;;;;;;17.88;64.63;97727.03;6125960;23;6945;-72
2023/10/21 04:10:45;;;;;;;;;;;;;;;17.89;64.61;97738.22;6144581;23;6787;-71
2023/10/21 04:13:11;;;;;;;;;;;;;;;17.89;64.79;97744.25;6150181;23;6767;-72
2023/10/21 04:15:37;;;;;;;;;;;;;;;17.86;64.60;97741.72;6123362;23;6974;-72
2023/10/21 04:18:03;;;;;;;;;;;;;;;17.86;64.48;97746.91;6151150;23;6880;-72
2023/10/21 04:20:31;;;;;;;;;;;;;;;17.85;64.55;97749.56;6148522;23;6858;-72
2023/10/21 04:22:57;;;;;;;;;;;;;;;17.85;64.85;97749.56;6126448;23;7129;-72
2023/10/21 04:25:23;;;;;;;;;;;;;;;17.83;64.27;97749.59;6148851;23;6779;-72
2023/10/21 04:27:49;;;;;;;;;;;;;;;17.80;64.31;97752.25;6148329;23;6786;-72
2023/10/21 04:30:15;;;;;;;;;;;;;;;17.78;64.44;97748.84;6149361;23;6771;-73
2023/10/21 04:32:41;;;;;;;;;;;;;;;17.75;64.30;97757.53;6123958;23;7025;-71
2023/10/21 04:35:08;;;;;;;;;;;;;;;17.72;64.30;97757.63;6149259;23;6946;-73
2023/10/21 04:37:34;;;;;;;;;;;;;;;17.71;64.13;97757.66;6148364;23;7026;-72
2023/10/21 04:40:00;;;;;;;;;;;;;;;17.68;63.95;97773.28;6127519;23;7216;-73
2023/10/21 04:42:26;;;;;;;;;;;;;;;17.65;64.12;97778.50;6150111;23;6766;-72
2023/10/21 04:44:52;;;;;;;;;;;;;;;17.61;64.45;97775.13;6149228;23;6779;-71
2023/10/21 04:47:18;;;;;;;;;;;;;;;17.57;63.82;97791.63;6153830;23;6774;-73
2023/10/21 04:49:44;;;;;;;;;;;;;;;17.53;63.99;97789.97;6149759;23;6759;-72
2023/10/21 04:52:17;;;;;;;;;;;;;;;17.47;63.98;97790.97;6128617;23;7152;-72
2023/10/21 04:54:43;;;;;;;;;;;;;;;17.41;63.85;97794.53;6154329;23;6977;-71
2023/10/21 04:57:10;;;;;;;;;;;;;;;17.37;63.74;97794.66;6153507;23;6759;-72
2023/10/21 04:59:36;;;;;;;;;;;;;;;17.31;64.24;97804.25;6149991;23;7189;-72
2023/10/21 05:02:04;;;;;;;;;;;;;;;17.27;64.07;97802.59;6126538;23;6813;-72
2023/10/21 05:04:30;;;;;;;;;;;;;;;17.23;63.83;97807.88;6122512;23;7007;-72
2023/10/21 05:06:55;;;;;;;;;;;;;;;17.18;63.81;97805.38;6124260;23;6766;-73
2023/10/21 05:09:21;;;;;;;;;;;;;;;17.16;64.26;97802.84;6122931;23;6755;-72
2023/10/21 05:11:47;;;;;;;;;;;;;;;17.13;64.23;97799.47;6124314;23;6898;-71
2023/10/21 05:14:12;;;;;;;;;;;;;;;17.14;64.46;97803.75;6094818;23;7004;-73
2023/10/21 05:16:38;;;;;;;;;;;;;;;17.15;64.58;97808.03;6120529;23;6910;-71
2023/10/21 05:19:07;;;;;;;;;;;;;;;17.16;64.85;97810.63;6119911;23;6800;-72
2023/10/21 05:21:33;;;;;;;;;;;;;;;17.18;64.76;97814.00;6121829;23;6778;-73
2023/10/21 05:23:58;;;;;;;;;;;;;;;17.22;64.48;97819.97;6124982;23;6763;-71
2023/10/21 05:26:28;;;;;;;;;;;;;;;17.24;64.50;97825.97;6124243;23;6935;-72
2023/10/21 05:28:54;;;;;;;;;;;;;;;17.27;64.36;97825.06;6124039;23;6775;-71
2023/10/21 05:31:20;;;;;;;;;;;;;;;17.29;64.58;97824.16;6098312;23;7535;-72
2023/10/21 05:33:45;;;;;;;;;;;;;;;17.28;64.00;97832.78;6125262;23;6774;-71
2023/10/21 05:36:11;;;;;;;;;;;;;;;17.27;64.15;97833.66;6125533;23;6755;-71
2023/10/21 05:38:36;;;;;;;;;;;;;;;17.25;64.15;97845.78;6119642;23;6772;-73
2023/10/21 05:41:02;;;;;;;;;;;;;;;17.25;64.34;97848.38;6123049;23;6929;-72
2023/10/21 05:43:28;;;;;;;;;;;;;;;17.26;64.20;97862.19;6122570;23;7163;-72
2023/10/21 05:45:54;;;;;;;;;;;;;;;17.27;64.29;97862.13;6122823;23;6762;-71
2023/10/21 05:48:19;;;;;;;;;;;;;;;17.32;64.38;97864.63;6122641;23;6778;-72
2023/10/21 05:50:45;;;;;;;;;;;;;;;17.38;64.87;97874.88;6124094;23;7190;-72
2023/10/21 05:53:10;;;;;;;;;;;;;;;17.46;64.66;97874.72;6100426;23;7076;-72
2023/10/21 05:55:43;;;;;;;;;;;;;;;17.55;64.55;97882.28;6099631;23;6805;-72
2023/10/21 05:58:10;;;;;;;;;;;;;;;17.62;64.91;97904.59;6124155;23;6766;-72
2023/10/21 06:00:35;;;;;;;;;;;;;;;17.71;64.75;97903.53;6144815;23;6949;-71
2023/10/21 06:03:02;;;;;;;;;;;;;;;17.76;64.94;97909.50;6117753;23;6941;-72
2023/10/21 06:05:27;;;;;;;;;;;;;;;17.85;64.65;97920.53;6118603;23;6767;-71
2023/10/21 06:07:53;;;;;;;;;;;;;;;17.89;64.30;97930.81;6118467;23;7087;-72
2023/10/21 06:10:20;;;;;;;;;;;;;;;17.93;64.45;97939.38;6094067;23;6953;-72
2023/10/21 06:12:46;;;;;;;;;;;;;;;17.98;64.23;97939.28;6094343;23;6962;-71
2023/10/21 06:15:13;;;;;;;;;;;;;;;18.03;64.37;97948.69;6117035;23;6786;-71
2023/10/21 06:17:39;;;;;;;;;;;;;;;18.08;64.21;97958.97;6117403;23;6981;-72
2023/10/21 06:20:07;;;;;;;;;;;;;;;18.12;63.81;97964.94;6118577;23;6947;-71
2023/10/21 06:22:33;;;;;;;;;;;;;;;18.15;63.35;97964.84;6118422;23;8545;-72
2023/10/21 06:25:00;;;;;;;;;;;;;;;18.20;63.30;97970.78;6141865;23;6794;-71
2023/10/21 06:27:26;;;;;;;;;;;;;;;18.26;63.76;97982.78;6093478;23;7113;-71
2023/10/21 06:29:51;;;;;;;;;;;;;;;18.30;62.48;97989.59;6094537;23;7304;-72
2023/10/21 06:32:17;;;;;;;;;;;;;;;18.32;63.22;97995.59;6092875;23;7017;-71
2023/10/21 06:34:43;;;;;;;;;;;;;;;18.35;62.86;97992.06;6117633;23;6970;-71
2023/10/21 06:37:08;;;;;;;;;;;;;;;18.37;62.06;98000.66;6116571;23;7223;-71
2023/10/21 06:39:34;;;;;;;;;;;;;;;18.37;61.98;98006.72;6116068;23;6759;-72
2023/10/21 06:42:00;;;;;;;;;;;;;;;18.38;62.30;98021.38;6116931;23;6774;-72
2023/10/21 06:44:26;;;;;;;;;;;;;;;18.39;61.95;98020.50;6119273;23;6992;-71
2023/10/21 06:46:51;;;;;;;;;;;;;;;18.39;62.26;98030.88;6115210;23;6940;-72
2023/10/21 06:49:17;;;;;;;;;;;;;;;18.40;61.88;98035.16;6116998;23;6795;-72
2023/10/21 06:51:43;;;;;;;;;;;;;;;18.41;61.87;98049.84;6117669;23;8005;-72
2023/10/21 06:54:09;;;;;;;;;;;;;;;18.41;61.91;98047.25;6117377;23;6826;-72
2023/10/21 06:56:35;;;;;;;;;;;;;;;18.43;61.97;98042.88;6141613;23;6778;-71
2023/10/21 06:59:01;;;;;;;;;;;;;;;18.42;61.84;98061.91;6118649;23;6965;-72
2023/10/21 07:01:27;;;;;;;;;;;;;;;18.42;61.88;98069.69;6090190;23;6954;-72
2023/10/21 07:03:53;;;;;;;;;;;;;;;18.43;61.58;98079.19;6115947;23;6811;-71
2023/10/21 07:06:20;;;;;;;;;;;;;;;18.45;60.56;98087.81;6113521;23;6782;-71
2023/10/21 07:08:46;;;;;;;;;;;;;;;18.50;60.50;98090.28;6118280;23;6778;-72
2023/10/21 07:11:13;;;;;;;;;;;;;;;18.51;60.19;98104.97;6117295;23;7019;-72
2023/10/21 07:13:38;;;;;;;;;;;;;;;18.45;59.65;98100.78;6121015;23;6786;-74
2023/10/21 07:16:11;;;;;;;;;;;;;;;18.37;59.12;98092.28;6129421;23;6770;-74
2023/10/21 07:18:37;;;;;;;;;;;;;;;18.30;59.51;98101.06;6132042;23;6921;-75
2023/10/21 07:21:06;;;;;;;;;;;;;;;18.24;58.89;98109.84;6132080;23;6858;-74
2023/10/21 07:23:32;;;;;;;;;;;;;;;18.18;58.88;98110.81;6134465;23;6782;-74
2023/10/21 07:25:58;;;;;;;;;;;;;;;18.10;58.85;98120.47;6134643;23;6775;-74
2023/10/21 07:28:24;;;;;;;;;;;;;;;18.03;58.56;98119.75;6137221;23;7147;-74
2023/10/21 07:30:49;;;;;;;;;;;;;;;17.98;58.59;98138.81;6134807;23;6863;-74
2023/10/21 07:33:15;;;;;;;;;;;;;;;17.91;57.80;98132.88;6115022;23;6950;-73
2023/10/21 07:35:41;;;;;;;;;;;;;;;17.84;58.65;98157.19;6124896;23;7196;-73
2023/10/21 07:38:07;;;;;;;;;;;;;;;17.79;58.61;98157.28;6119687;23;6805;-74
2023/10/21 07:40:32;;;;;;;;;;;;;;;17.75;58.51;98158.19;6139127;23;6770;-74
2023/10/21 07:42:58;;;;;;;;;;;;;;;17.73;58.46;98155.66;6139053;23;6766;-73
2023/10/21 07:45:25;;;;;;;;;;;;;;;17.72;58.61;98171.22;6149232;23;6762;-73
2023/10/21 07:47:52;;;;;;;;;;;;;;;17.71;58.99;98179.88;6164840;23;6775;-73
2023/10/21 07:50:19;;;;;;;;;;;;;;;17.71;58.83;98179.88;6164072;23;6976;-74
2023/10/21 07:52:45;;;;;;;;;;;;;;;17.70;58.50;98185.94;6140651;23;6962;-73
2023/10/21 07:55:12;;;;;;;;;;;;;;;17.69;58.34;98176.47;6164928;23;6770;-73
2023/10/21 07:57:41;;;;;;;;;;;;;;;17.69;57.92;98177.28;6162352;23;6774;-73
2023/10/21 08:00:07;;;;;;;;;;;;;;;17.69;58.13;98179.88;6139523;23;7021;-73
2023/10/21 08:02:34;;;;;;;;;;;;;;;17.70;57.76;98185.94;6141928;23;6934;-73
2023/10/21 08:05:00;;;;;;;;;;;;;;;17.71;57.48;98192.81;6166246;23;6823;-73
2023/10/21 08:07:26;;;;;;;;;;;;;;;17.71;57.67;98195.41;6164568;23;6762;-73
2023/10/21 08:09:52;;;;;;;;;;;;;;;17.71;57.40;98201.44;6163024;23;6884;-74
2023/10/21 08:12:18;;;;;;;;;;;;;;;17.71;57.80;98195.41;6162722;23;6746;-73
2023/10/21 08:14:43;;;;;;;;;;;;;;;17.72;57.69;98205.75;6136280;23;6977;-73
2023/10/21 08:17:09;;;;;;;;;;;;;;;17.74;57.17;98206.59;6161231;23;6759;-74
2023/10/21 08:19:35;;;;;;;;;;;;;;;17.77;57.09;98216.06;6161110;23;6968;-73
2023/10/21 08:22:01;;;;;;;;;;;;;;;17.79;56.02;98216.88;6164151;23;6825;-75
2023/10/21 08:24:27;;;;;;;;;;;;;;;17.83;56.91;98220.28;6154383;23;6771;-72
2023/10/21 08:26:53;;;;;;;;;;;;;;;17.86;56.13;98226.22;6150974;23;6815;-72
2023/10/21 08:29:20;;;;;;;;;;;;;;;17.90;56.61;98227.91;6146782;23;7092;-72
2023/10/21 08:31:47;;;;;;;;;;;;;;;17.94;56.20;98235.63;6150585;23;6775;-72
2023/10/21 08:34:13;;;;;;;;;;;;;;;17.97;56.24;98240.78;6150888;23;6770;-72
2023/10/21 08:36:40;;;;;;;;;;;;;;;17.99;56.01;98244.19;6151158;23;6958;-71
2023/10/21 08:39:07;;;;;;;;;;;;;;;18.01;56.04;98256.25;6150980;23;6779;-71
2023/10/21 08:41:38;;;;;;;;;;;;;;;18.03;56.00;98258.78;6144563;23;7100;-71
2023/10/21 08:44:07;;;;;;;;;;;;;;;18.07;56.02;98268.28;6137463;23;6774;-71
2023/10/21 08:46:33;;;;;;;;;;;;;;;18.12;55.91;98265.59;6118725;23;6778;-72
2023/10/21 08:49:05;;;;;;;;;;;;;;;18.17;56.08;98259.47;6094166;23;7116;-72
2023/10/21 08:51:33;;;;;;;;;;;;;;;18.22;55.26;98264.56;6094496;23;7061;-72
2023/10/21 08:54:04;;;;;;;;;;;;;;;18.24;55.01;98269.69;6121418;23;7026;-72
2023/10/21 08:56:33;;;;;;;;;;;;;;;18.27;54.79;98260.13;6118147;23;6779;-71
2023/10/21 08:59:00;;;;;;;;;;;;;;;18.30;54.46;98254.03;6142245;23;6779;-72
2023/10/21 09:01:26;;;;;;;;;;;;;;;18.30;54.48;98259.22;6116627;23;6958;-72
2023/10/21 09:03:52;;;;;;;;;;;;;;;18.31;54.37;98269.59;6117361;23;6763;-72
2023/10/21 09:06:18;;;;;;;;;;;;;;;18.32;53.88;98267.84;6118902;23;7211;-72
2023/10/21 09:08:49;;;;;;;;;;;;;;;18.34;53.85;98276.44;6121446;23;6897;-70
2023/10/21 09:11:19;;;;;;;;;;;;;;;18.35;54.57;98280.75;6095674;23;7014;-72
2023/10/21 09:13:45;;;;;;;;;;;;;;;18.37;54.04;98281.59;6119458;23;6911;-72
2023/10/21 09:16:19;;;;;;;;;;;;;;;18.38;53.75;98278.09;6115266;23;6851;-72
2023/10/21 09:19:04;;;;;;;;;;;;;;;18.39;53.94;98278.94;6116612;23;6834;-71
2023/10/21 09:21:41;;;;;;;;;;;;;;;18.41;54.22;98290.16;6117340;23;6939;-70
2023/10/21 09:24:10;;;;;;;;;;;;;;;18.43;54.45;98306.56;6117054;23;6826;-72
2023/10/21 09:26:47;;;;;;;;;;;;;;;18.46;54.27;98311.69;6092645;23;8201;-70
2023/10/21 09:29:19;;;;;;;;;;;;;;;18.51;53.98;98319.38;6141996;23;7227;-72
2023/10/21 09:31:56;;;;;;;;;;;;;;;18.54;54.04;98320.19;6093422;23;7415;-71
2023/10/21 09:34:33;;;;;;;;;;;;;;;18.59;53.79;98336.53;6124632;23;6830;-74
2023/10/21 09:37:06;;;;;;;;;;;;;;;18.65;53.40;98342.47;6131556;23;7403;-78
2023/10/21 09:39:36;;;;;;;;;;;;;;;18.70;53.60;98344.09;6124148;23;6774;-72
2023/10/21 09:42:05;;;;;;;;;;;;;;;18.79;53.72;98352.59;6128742;23;6775;-75
2023/10/21 09:44:34;;;;;;;;;;;;;;;18.93;53.71;98362.72;6150892;23;6775;-73
2023/10/21 09:47:05;;;;;;;;;;;;;;;19.07;54.14;98359.91;6126361;23;6922;-75
2023/10/21 09:49:38;;;;;;;;;;;;;;;19.25;53.42;98363.88;6125157;23;6779;-75
2023/10/21 09:52:09;;;;;;;;;;;;;;;19.37;52.66;98370.56;6126150;23;6838;-75
2023/10/21 09:55:04;;;;;;;;;;;;;;;19.48;52.83;98368.59;6125874;23;6783;-76
2023/10/21 09:57:31;;;;;;;;;;;;;;;19.61;52.55;98366.59;6126554;23;6946;-74
2023/10/21 09:59:59;;;;;;;;;;;;;;;20.07;52.01;98366.50;6124664;23;6775;-76
2023/10/21 10:02:26;;;;;;;;;;;;;;;20.93;51.43;98371.31;6124915;23;6782;-75
2023/10/21 10:04:53;;;;;;;;;;;;;;;21.96;50.60;98370.13;6098668;23;6953;-75
2023/10/21 10:07:20;;;;;;;;;;;;;;;22.81;47.02;98372.63;6099649;23;6806;-74
2023/10/21 10:09:48;;;;;;;;;;;;;;;23.27;46.22;98387.56;6099883;23;7278;-76
2023/10/21 10:12:25;;;;;;;;;;;;;;;23.22;45.94;98399.94;6099256;23;6953;-74
2023/10/21 10:14:54;;;;;;;;;;;;;;;22.82;46.24;98392.63;6101797;23;6899;-75
2023/10/21 10:17:48;;;;;;;;;;;;;;;22.44;46.07;98400.78;6125251;23;6970;-74
2023/10/21 10:20:24;;;;;;;;;;;;;;;22.30;47.24;98395.16;6126045;23;7038;-74
2023/10/21 10:23:07;;;;;;;;;;;;;;;22.36;46.87;98401.94;6098872;23;6968;-74
2023/10/21 10:25:39;;;;;;;;;;;;;;;22.45;46.50;98391.22;6124493;23;6778;-75
2023/10/21 10:28:10;;;;;;;;;;;;;;;22.58;45.95;98402.13;6125292;23;6838;-74
2023/10/21 10:30:46;;;;;;;;;;;;;;;22.84;46.59;98403.84;6096935;23;6817;-76
2023/10/21 10:33:17;;;;;;;;;;;;;;;23.55;45.85;98383.94;6100106;23;6989;-76
2023/10/21 10:35:47;;;;;;;;;;;;;;;24.37;44.60;98393.03;6126214;23;7370;-76
2023/10/21 10:38:25;;;;;;;;;;;;;;;25.04;42.99;98399.00;6146636;23;6775;-73
2023/10/21 10:41:10;;;;;;;;;;;;;;;25.76;42.00;98394.06;6120304;23;6839;-74
2023/10/21 10:43:41;;;;;;;;;;;;;;;26.32;39.86;98396.69;6121855;23;6906;-71
2023/10/21 10:46:06;;;;;;;;;;;;;;;26.65;39.20;98402.94;6093070;23;7015;-71
2023/10/21 10:48:34;;;;;;;;;;;;;;;26.88;38.19;98401.81;6115214;23;7015;-71
2023/10/21 10:51:10;;;;;;;;;;;;;;;26.48;38.38;98415.16;6094105;23;7095;-71
2023/10/21 10:53:36;;;;;;;;;;;;;;;26.10;38.33;98415.22;6117301;23;6981;-72
2023/10/21 10:56:02;;;;;;;;;;;;;;;26.16;38.31;98414.09;6116256;23;6767;-71
2023/10/21 10:58:28;;;;;;;;;;;;;;;26.20;37.67;98399.91;6092741;23;7127;-71
2023/10/21 11:00:54;;;;;;;;;;;;;;;25.78;37.18;98404.47;6115177;23;7014;-72
2023/10/21 11:03:28;;;;;;;;;;;;;;;25.13;37.51;98417.84;6093560;23;7038;-72
2023/10/21 11:05:57;;;;;;;;;;;;;;;24.85;38.11;98398.09;6093501;23;7103;-70
2023/10/21 11:08:24;;;;;;;;;;;;;;;25.17;38.28;98419.41;6117731;23;7020;-72
2023/10/21 11:10:53;;;;;;;;;;;;;;;25.71;38.18;98410.94;6119092;23;7087;-71
2023/10/21 11:13:20;;;;;;;;;;;;;;;26.22;36.82;98418.22;6093199;23;6951;-70
2023/10/21 11:15:54;;;;;;;;;;;;;;;26.50;36.28;98419.50;6090528;23;7149;-72
2023/10/21 11:18:21;;;;;;;;;;;;;;;26.86;36.40;98418.59;6095270;23;6970;-72
2023/10/21 11:20:53;;;;;;;;;;;;;;;26.57;35.96;98423.53;6118852;23;6774;-72
2023/10/21 11:23:23;;;;;;;;;;;;;;;25.73;36.03;98419.59;6092391;23;7004;-71
2023/10/21 11:25:59;;;;;;;;;;;;;;;24.88;36.76;98434.63;6116331;23;7076;-71
2023/10/21 11:28:25;;;;;;;;;;;;;;;24.47;38.02;98425.78;6093100;23;8009;-72
2023/10/21 11:30:52;;;;;;;;;;;;;;;24.61;38.25;98432.19;6113930;23;6771;-70
2023/10/21 11:33:18;;;;;;;;;;;;;;;25.17;37.76;98432.50;6119064;23;7033;-71
2023/10/21 11:35:48;;;;;;;;;;;;;;;25.71;36.42;98426.69;6091474;23;6953;-71
2023/10/21 11:38:19;;;;;;;;;;;;;;;25.78;35.54;98433.31;6115507;23;6902;-71
2023/10/21 11:40:46;;;;;;;;;;;;;;;26.01;35.83;98434.88;6140503;23;7233;-72
2023/10/21 11:43:16;;;;;;;;;;;;;;;26.28;34.97;98433.69;6113849;23;7077;-71
2023/10/21 11:45:43;;;;;;;;;;;;;;;25.83;33.98;98435.72;6112792;23;7088;-72
2023/10/21 11:48:09;;;;;;;;;;;;;;;24.97;35.13;98439.47;6092045;23;7130;-73
2023/10/21 11:50:47;;;;;;;;;;;;;;;24.14;36.34;98441.91;6115686;23;6970;-72
2023/10/21 11:53:13;;;;;;;;;;;;;;;23.48;37.26;98451.31;6115980;23;6950;-72
2023/10/21 12:04:00;;;;;;;;;;;;;;;21.50;40.27;98475.69;6129466;23;6955;-71
2023/10/21 12:14:57;;;;;;;;;;;;;;;19.97;43.74;98472.44;6130237;23;6767;-71
2023/10/21 12:23:45;;;;;;;;;;;;;;;20.02;44.63;98469.72;6104161;23;6834;-72
2023/10/21 12:33:20;;;;;;;;;;;;;;;20.43;42.85;98478.38;6127044;23;6910;-71
2023/10/21 12:38:38;;;;;;;;;;;;;;;20.53;42.95;98487.69;6126436;23;6975;-72
2023/10/21 12:43:49;;;;;;;;;;;;;;;20.65;43.17;98493.47;6118977;23;6762;-72
2023/10/21 12:46:18;;;;;;;;;;;;;;;20.79;43.39;98495.75;6114584;23;6928;-72
2023/10/21 12:48:57;;;;;;;;;;;;;;;20.92;43.20;98489.38;6111452;23;6806;-73
2023/10/21 12:51:26;;;;;;;;;;;;;;;21.02;43.06;98490.00;6119612;23;7039;-71
2023/10/21 12:53:52;;;;;;;;;;;;;;;21.06;42.38;98472.56;6095756;23;6993;-71
2023/10/21 12:56:18;;;;;;;;;;;;;;;21.05;41.74;98483.84;6119885;23;8739;-71
2023/10/21 12:58:44;;;;;;;;;;;;;;;21.00;41.86;98486.56;6120552;23;6766;-71
2023/10/21 13:01:12;;;;;;;;;;;;;;;21.00;42.13;98480.50;6121101;23;6778;-72
2023/10/21 13:03:39;;;;;;;;;;;;;;;21.00;41.81;98472.69;6119609;23;6849;-72
2023/10/21 13:06:06;;;;;;;;;;;;;;;20.95;41.67;98485.84;6121787;23;6766;-72
2023/10/21 13:08:33;;;;;;;;;;;;;;;20.88;42.26;98485.13;6117970;23;6916;-72
2023/10/21 13:10:59;;;;;;;;;;;;;;;20.81;42.01;98470.53;6119479;23;6783;-72
2023/10/21 13:13:27;;;;;;;;;;;;;;;20.75;42.30;98484.56;6116626;23;6771;-72
2023/10/21 13:15:55;;;;;;;;;;;;;;;20.68;41.80;98467.38;6118674;23;7492;-71
2023/10/21 13:18:22;;;;;;;;;;;;;;;20.62;42.21;98478.78;6119069;23;6775;-71
2023/10/21 13:20:48;;;;;;;;;;;;;;;20.58;42.57;98478.88;6115234;23;7349;-71
2023/10/21 13:23:13;;;;;;;;;;;;;;;20.57;42.27;98472.84;6117983;23;6779;-70
2023/10/21 13:25:39;;;;;;;;;;;;;;;20.63;42.68;98472.69;6093979;23;6947;-71
2023/10/21 13:28:05;;;;;;;;;;;;;;;20.67;42.72;98471.72;6122107;23;6759;-72
2023/10/21 13:30:35;;;;;;;;;;;;;;;20.70;42.61;98475.16;6111768;23;6775;-71
2023/10/21 13:33:03;;;;;;;;;;;;;;;20.64;41.58;98469.19;6118255;23;6775;-71
2023/10/21 13:35:30;;;;;;;;;;;;;;;20.57;41.72;98472.84;6119969;23;6774;-71